Time;durP1;ratioP1;P1;durP2;ratioP2;P2;SDS_P1;SDS_P2;PMS_P1;PMS_P2;Temp;Humidity;BMP_temperature;BMP_pressure;BME280_temperature;BME280_humidity;BME280_pressure;Samples;Min_cycle;Max_cycle;Signal;HPM_P1;HPM_P2
2021/08/25 00:00:49;;;;;;;8.97;5.90;;;18.00;1.00;;;;;;5077707;28;20840;-80
2021/08/25 00:03:18;;;;;;;6.07;5.57;;;18.00;1.00;;;;;;5087010;28;20491;-81
2021/08/25 00:05:46;;;;;;;5.93;5.43;;;18.00;1.00;;;;;;5088082;28;20982;-79
2021/08/25 00:08:14;;;;;;;6.47;5.87;;;18.00;1.00;;;;;;5070228;28;21010;-80
2021/08/25 00:10:43;;;;;;;6.20;5.60;;;17.90;1.00;;;;;;5062439;28;20485;-79
2021/08/25 00:13:11;;;;;;;6.30;5.70;;;17.90;1.00;;;;;;5076828;28;20494;-81
2021/08/25 00:15:42;;;;;;;7.03;6.20;;;17.90;1.00;;;;;;5080959;28;20464;-81
2021/08/25 00:18:12;;;;;;;6.00;5.40;;;17.90;1.00;;;;;;5068148;28;20464;-82
2021/08/25 00:20:40;;;;;;;6.40;5.53;;;17.80;1.00;;;;;;5073809;28;21016;-80
2021/08/25 00:23:09;;;;;;;8.00;6.80;;;17.80;1.00;;;;;;5070217;28;20808;-79
2021/08/25 00:25:37;;;;;;;7.30;6.60;;;17.80;1.00;;;;;;5069773;28;20535;-81
2021/08/25 00:28:05;;;;;;;7.10;5.80;;;17.80;1.00;;;;;;5070126;28;20501;-81
2021/08/25 00:30:34;;;;;;;7.33;6.40;;;17.80;1.00;;;;;;5068539;28;20884;-81
2021/08/25 00:33:04;;;;;;;6.10;5.50;;;17.70;1.00;;;;;;5088114;28;20450;-80
2021/08/25 00:35:32;;;;;;;6.93;6.23;;;17.70;1.00;;;;;;5070758;28;20465;-80
2021/08/25 00:38:00;;;;;;;8.93;6.30;;;17.70;1.00;;;;;;5070765;28;20494;-82
2021/08/25 00:40:28;;;;;;;6.20;5.50;;;17.60;1.00;;;;;;5070830;28;20461;-82
2021/08/25 00:43:03;;;;;;;10.17;6.50;;;17.60;1.00;;;;;;5084537;28;20865;-82
2021/08/25 00:45:33;;;;;;;6.10;5.60;;;17.60;1.00;;;;;;5087300;28;20807;-81
2021/08/25 00:48:01;;;;;;;7.53;6.57;;;17.60;1.00;;;;;;5076726;28;20452;-81
2021/08/25 00:50:30;;;;;;;7.50;6.80;;;17.60;1.00;;;;;;5068445;28;20462;-80
2021/08/25 00:52:59;;;;;;;7.33;6.60;;;17.60;1.00;;;;;;5065268;28;20464;-80
2021/08/25 00:55:27;;;;;;;6.37;5.77;;;17.60;1.00;;;;;;5071629;28;20457;-82
2021/08/25 00:57:55;;;;;;;8.00;6.50;;;17.60;1.00;;;;;;5069561;28;20502;-79
2021/08/25 01:00:23;;;;;;;7.90;7.10;;;17.60;1.00;;;;;;5072494;28;20452;-80
2021/08/25 01:02:56;;;;;;;5.93;5.43;;;17.60;1.00;;;;;;5062160;28;20447;-79
2021/08/25 01:05:25;;;;;;;7.03;5.77;;;17.60;1.00;;;;;;5072836;28;20495;-80
2021/08/25 01:07:58;;;;;;;7.07;5.80;;;17.60;1.00;;;;;;5084159;28;20442;-81
2021/08/25 01:10:28;;;;;;;7.13;6.43;;;17.50;1.00;;;;;;5072298;28;20461;-80
2021/08/25 01:12:57;;;;;;;7.53;6.83;;;17.50;1.00;;;;;;5072095;28;20843;-81
2021/08/25 01:15:27;;;;;;;6.90;5.77;;;17.50;1.00;;;;;;5073430;28;20960;-80
2021/08/25 01:17:57;;;;;;;8.80;6.13;;;17.50;1.00;;;;;;5079123;28;20483;-80
2021/08/25 01:20:27;;;;;;;6.80;5.47;;;17.50;1.00;;;;;;5068146;28;20447;-79
2021/08/25 01:22:57;;;;;;;6.70;6.10;;;17.40;1.00;;;;;;5069182;28;20469;-79
2021/08/25 01:25:27;;;;;;;5.97;5.37;;;17.40;1.00;;;;;;5072646;28;20464;-81
2021/08/25 01:27:56;;;;;;;8.70;6.70;;;17.40;1.00;;;;;;5072533;28;20451;-80
2021/08/25 01:30:29;;;;;;;6.80;6.10;;;17.40;1.00;;;;;;5075809;28;20556;-79
2021/08/25 01:32:59;;;;;;;5.17;4.70;;;17.40;1.00;;;;;;5066502;28;20887;-81
2021/08/25 01:35:34;;;;;;;6.70;6.00;;;17.40;1.00;;;;;;5072093;28;21024;-81
2021/08/25 01:38:03;;;;;;;6.30;5.70;;;17.40;1.00;;;;;;5068160;28;20831;-80
2021/08/25 01:40:32;;;;;;;7.07;5.97;;;17.40;1.00;;;;;;5075902;28;20541;-80
2021/08/25 01:43:00;;;;;;;6.70;6.00;;;17.40;1.00;;;;;;5057824;28;20448;-81
2021/08/25 01:45:30;;;;;;;6.80;6.20;;;17.40;1.00;;;;;;5076645;28;20463;-81
2021/08/25 01:47:58;;;;;;;6.23;5.67;;;17.40;1.00;;;;;;5076400;28;20465;-81
2021/08/25 01:50:27;;;;;;;6.00;5.40;;;17.40;1.00;;;;;;5067493;28;20459;-81
2021/08/25 01:52:55;;;;;;;6.07;5.47;;;17.40;1.00;;;;;;5076596;28;20456;-80
2021/08/25 01:55:23;;;;;;;5.93;5.33;;;17.40;1.00;;;;;;5067510;28;20464;-81
2021/08/25 01:57:51;;;;;;;7.17;5.40;;;17.40;1.00;;;;;;5068997;28;20478;-80
2021/08/25 02:00:19;;;;;;;6.83;6.23;;;17.30;1.00;;;;;;5073732;28;20510;-80
2021/08/25 02:02:49;;;;;;;6.43;5.90;;;17.30;1.00;;;;;;5077558;28;20457;-79
2021/08/25 02:05:18;;;;;;;6.20;5.60;;;17.30;1.00;;;;;;5086376;28;20780;-80
2021/08/25 02:07:46;;;;;;;7.97;6.70;;;17.30;1.00;;;;;;5087714;28;20452;-80
2021/08/25 02:10:14;;;;;;;6.53;5.80;;;17.30;1.00;;;;;;5077595;28;20454;-80
2021/08/25 02:12:42;;;;;;;6.07;5.57;;;17.30;1.00;;;;;;5070460;28;20464;-81
2021/08/25 02:15:11;;;;;;;7.27;6.70;;;17.30;1.00;;;;;;5074176;28;20474;-80
2021/08/25 02:17:40;;;;;;;6.33;5.40;;;17.20;1.00;;;;;;5073175;28;20844;-81
2021/08/25 02:20:11;;;;;;;6.53;5.03;;;17.20;1.00;;;;;;5057268;28;21159;-80
2021/08/25 02:22:39;;;;;;;6.53;5.77;;;17.20;1.00;;;;;;5075138;28;20484;-80
2021/08/25 02:25:08;;;;;;;6.10;5.50;;;17.10;1.00;;;;;;5078257;28;20478;-81
2021/08/25 02:27:36;;;;;;;6.33;5.70;;;17.10;1.00;;;;;;5055350;28;20447;-81
2021/08/25 02:30:05;;;;;;;6.80;6.00;;;17.10;1.00;;;;;;5069625;28;20519;-81
2021/08/25 02:32:33;;;;;;;6.50;5.83;;;17.10;1.00;;;;;;5062235;28;20451;-81
2021/08/25 02:35:01;;;;;;;6.60;5.70;;;17.00;1.00;;;;;;5070188;28;20552;-80
2021/08/25 02:37:31;;;;;;;8.53;5.93;;;17.00;1.00;;;;;;5058450;28;20493;-80
2021/08/25 02:39:59;;;;;;;8.30;6.90;;;17.00;1.00;;;;;;5078535;28;20463;-80
2021/08/25 02:42:27;;;;;;;7.53;6.83;;;17.00;1.00;;;;;;5085237;28;20469;-80
2021/08/25 02:44:55;;;;;;;8.03;6.63;;;17.00;1.00;;;;;;5077726;28;20477;-81
2021/08/25 02:47:23;;;;;;;6.90;6.20;;;17.00;1.00;;;;;;5084483;28;20505;-82
2021/08/25 02:49:51;;;;;;;7.73;7.13;;;16.90;1.00;;;;;;5072397;28;20522;-81
2021/08/25 02:52:19;;;;;;;6.67;6.07;;;16.90;1.00;;;;;;5068529;28;20460;-80
2021/08/25 02:54:49;;;;;;;7.30;6.40;;;16.90;1.00;;;;;;5075291;28;20482;-81
2021/08/25 02:57:17;;;;;;;7.80;6.30;;;16.90;1.00;;;;;;5067224;28;20509;-80
2021/08/25 02:59:45;;;;;;;6.50;5.17;;;16.90;1.00;;;;;;5071233;28;20522;-81
2021/08/25 03:02:13;;;;;;;6.57;5.60;;;16.80;1.00;;;;;;5082941;28;20462;-80
2021/08/25 03:04:41;;;;;;;6.90;5.97;;;16.80;1.00;;;;;;5082904;28;20481;-80
2021/08/25 03:07:10;;;;;;;6.70;5.37;;;16.80;1.00;;;;;;5086812;28;20454;-81
2021/08/25 03:09:38;;;;;;;6.90;6.20;;;16.80;1.00;;;;;;5075748;28;20507;-80
2021/08/25 03:12:08;;;;;;;6.50;5.90;;;16.80;1.00;;;;;;5077172;28;20451;-80
2021/08/25 03:14:36;;;;;;;7.20;6.50;;;16.80;1.00;;;;;;5074989;28;20479;-83
2021/08/25 03:17:04;;;;;;;8.57;7.23;;;16.80;1.00;;;;;;5071746;28;20458;-83
2021/08/25 03:19:32;;;;;;;6.37;5.67;;;16.80;1.00;;;;;;5079338;28;20477;-81
2021/08/25 03:22:01;;;;;;;6.30;5.70;;;16.80;1.00;;;;;;5081019;28;20465;-82
2021/08/25 03:24:29;;;;;;;6.73;6.10;;;16.70;1.00;;;;;;5073050;28;20473;-83
2021/08/25 03:26:57;;;;;;;7.07;6.37;;;16.70;1.00;;;;;;5069567;28;20473;-83
2021/08/25 03:29:26;;;;;;;7.70;6.50;;;16.70;1.00;;;;;;5080542;28;20885;-82
2021/08/25 03:31:55;;;;;;;8.80;6.60;;;16.70;1.00;;;;;;5073784;28;20462;-81
2021/08/25 03:34:23;;;;;;;9.43;7.63;;;16.70;1.00;;;;;;5072234;28;21103;-82
2021/08/25 03:36:52;;;;;;;7.77;6.20;;;16.70;1.00;;;;;;5081048;28;20433;-82
2021/08/25 03:39:20;;;;;;;6.57;5.80;;;16.70;1.00;;;;;;5073144;28;20999;-82
2021/08/25 03:41:48;;;;;;;6.27;5.67;;;16.70;1.00;;;;;;5078111;28;20945;-83
2021/08/25 03:44:16;;;;;;;7.00;5.73;;;16.70;1.00;;;;;;5078470;28;20472;-81
2021/08/25 03:46:45;;;;;;;6.57;5.97;;;16.70;1.00;;;;;;5081401;28;20547;-80
2021/08/25 03:49:14;;;;;;;8.43;6.77;;;16.70;1.00;;;;;;5080316;28;20471;-82
2021/08/25 03:51:42;;;;;;;6.77;6.13;;;16.70;1.00;;;;;;5088364;28;20527;-80
2021/08/25 03:54:10;;;;;;;7.17;6.47;;;16.70;1.00;;;;;;5071878;28;20473;-80
2021/08/25 03:56:38;;;;;;;9.10;7.03;;;16.70;1.00;;;;;;5071685;28;20465;-80
2021/08/25 03:59:06;;;;;;;7.43;6.53;;;16.70;1.00;;;;;;5076918;28;21028;-78
2021/08/25 04:01:34;;;;;;;7.73;6.27;;;16.60;1.00;;;;;;5078974;28;20449;-81
2021/08/25 04:04:06;;;;;;;8.20;6.70;;;16.60;1.00;;;;;;5071580;28;20855;-81
2021/08/25 04:06:36;;;;;;;7.10;6.40;;;16.60;1.00;;;;;;5069500;28;20458;-79
2021/08/25 04:09:08;;;;;;;7.80;6.90;;;16.60;1.00;;;;;;5074663;28;20905;-82
2021/08/25 04:11:36;;;;;;;7.23;6.53;;;16.60;1.00;;;;;;5088529;28;21009;-82
2021/08/25 04:14:04;;;;;;;7.03;6.33;;;16.60;1.00;;;;;;5074125;28;20468;-81
2021/08/25 04:16:32;;;;;;;9.10;6.80;;;16.50;1.00;;;;;;5071240;28;21026;-80
2021/08/25 04:19:00;;;;;;;9.07;7.20;;;16.50;1.00;;;;;;5056646;28;20477;-79
2021/08/25 04:21:30;;;;;;;7.93;6.97;;;16.50;1.00;;;;;;5087521;28;20480;-80
2021/08/25 04:23:58;;;;;;;6.57;5.83;;;16.50;1.00;;;;;;5062067;28;20599;-81
2021/08/25 04:26:26;;;;;;;8.20;6.90;;;16.50;1.00;;;;;;5079493;28;20511;-80
2021/08/25 04:28:54;;;;;;;9.90;7.20;;;16.50;1.00;;;;;;5075820;28;20855;-79
2021/08/25 04:31:22;;;;;;;8.57;6.60;;;16.50;1.00;;;;;;5082320;28;20454;-79
2021/08/25 04:33:50;;;;;;;6.10;5.50;;;16.50;1.00;;;;;;5071101;28;20489;-80
2021/08/25 04:36:19;;;;;;;6.97;6.27;;;16.50;1.00;;;;;;5068119;28;20450;-80
2021/08/25 04:38:48;;;;;;;7.33;6.63;;;16.50;1.00;;;;;;5069465;28;20475;-81
2021/08/25 04:41:16;;;;;;;6.83;6.10;;;16.50;1.00;;;;;;5053249;28;20459;-78
2021/08/25 04:43:44;;;;;;;8.17;7.10;;;16.40;1.00;;;;;;5062021;28;20473;-79
2021/08/25 04:46:16;;;;;;;8.83;6.17;;;16.40;1.00;;;;;;5076932;28;20507;-80
2021/08/25 04:48:44;;;;;;;8.07;6.80;;;16.40;1.00;;;;;;5075467;28;20458;-79
2021/08/25 04:51:13;;;;;;;6.23;5.67;;;16.40;1.00;;;;;;5065291;28;20526;-79
2021/08/25 04:53:41;;;;;;;6.00;5.50;;;16.40;1.00;;;;;;5055008;28;20535;-79
2021/08/25 04:56:11;;;;;;;7.60;6.00;;;16.40;1.00;;;;;;5060365;28;20547;-81
2021/08/25 04:58:39;;;;;;;6.60;5.93;;;16.40;1.00;;;;;;5072031;28;20481;-81
2021/08/25 05:01:07;;;;;;;7.20;6.07;;;16.40;1.00;;;;;;5065097;28;20461;-82
2021/08/25 05:03:37;;;;;;;7.10;5.90;;;16.40;1.00;;;;;;5080155;28;20462;-80
2021/08/25 05:06:09;;;;;;;6.90;6.20;;;16.40;1.00;;;;;;5074886;28;20487;-83
2021/08/25 05:08:38;;;;;;;7.97;7.00;;;16.40;1.00;;;;;;5084860;28;20448;-81
2021/08/25 05:11:08;;;;;;;7.37;6.47;;;16.40;1.00;;;;;;5070981;28;20456;-82
2021/08/25 05:13:38;;;;;;;10.70;6.80;;;16.40;1.00;;;;;;5078259;28;20492;-81
2021/08/25 05:16:11;;;;;;;10.20;7.07;;;16.40;1.00;;;;;;5065765;28;20861;-81
2021/08/25 05:18:39;;;;;;;7.07;6.37;;;16.40;1.00;;;;;;5073244;28;21021;-80
2021/08/25 05:21:07;;;;;;;8.50;6.50;;;16.40;1.00;;;;;;5070630;28;20951;-80
2021/08/25 05:23:36;;;;;;;6.50;5.90;;;16.40;1.00;;;;;;5077257;28;20490;-77
2021/08/25 05:26:04;;;;;;;7.27;5.97;;;16.40;1.00;;;;;;5084944;28;20565;-79
2021/08/25 05:28:32;;;;;;;8.33;6.00;;;16.40;1.00;;;;;;5057122;28;20450;-80
2021/08/25 05:31:02;;;;;;;7.47;6.20;;;16.40;1.00;;;;;;5077492;28;20978;-80
2021/08/25 05:33:30;;;;;;;7.27;6.00;;;16.40;1.00;;;;;;5081261;28;20468;-81
2021/08/25 05:35:59;;;;;;;9.53;6.87;;;16.40;1.00;;;;;;5069018;28;20442;-82
2021/08/25 05:38:27;;;;;;;8.87;7.97;;;16.40;1.00;;;;;;5081566;28;20476;-81
2021/08/25 05:40:55;;;;;;;8.30;5.80;;;16.40;1.00;;;;;;5066904;28;20449;-75
2021/08/25 05:43:23;;;;;;;7.33;6.30;;;16.30;1.00;;;;;;5075057;28;20476;-83
2021/08/25 05:45:51;;;;;;;8.57;6.70;;;16.20;99.90;;;;;;5075777;28;20510;-83
2021/08/25 05:48:21;;;;;;;8.00;6.10;;;16.30;99.90;;;;;;5071472;28;20462;-85
2021/08/25 05:50:50;;;;;;;6.53;5.93;;;16.40;95.10;;;;;;5060501;28;20466;-83
2021/08/25 05:53:18;;;;;;;5.43;4.93;;;16.40;98.70;;;;;;5075872;28;20477;-83
2021/08/25 05:55:46;;;;;;;9.77;7.40;;;16.50;78.40;;;;;;5068674;28;20509;-82
2021/08/25 05:58:14;;;;;;;6.67;6.07;;;16.50;74.80;;;;;;5069577;28;20461;-81
2021/08/25 06:00:43;;;;;;;7.70;5.93;;;16.60;99.90;;;;;;5071203;28;20876;-80
2021/08/25 06:03:11;;;;;;;5.70;5.13;;;16.60;99.90;;;;;;5081384;28;20473;-82
2021/08/25 06:05:41;;;;;;;7.77;5.70;;;16.60;99.90;;;;;;5073404;28;20477;-82
2021/08/25 06:08:13;;;;;;;6.00;5.40;;;16.60;99.90;;;;;;5061779;28;21016;-83
2021/08/25 06:10:41;;;;;;;5.80;5.20;;;16.70;99.90;;;;;;5053006;28;20447;-80
2021/08/25 06:13:09;;;;;;;5.30;4.80;;;16.80;99.90;;;;;;5079601;28;20537;-81
2021/08/25 06:15:38;;;;;;;6.70;6.10;;;16.90;99.90;;;;;;5068525;28;20450;-81
2021/08/25 06:18:06;;;;;;;5.80;5.20;;;16.90;99.90;;;;;;5062678;28;20556;-81
2021/08/25 06:20:35;;;;;;;7.30;5.90;;;17.00;99.90;;;;;;5070525;28;20481;-81
2021/08/25 06:23:05;;;;;;;7.77;6.10;;;17.10;99.90;;;;;;5069047;28;20474;-80
2021/08/25 06:25:33;;;;;;;7.53;5.67;;;17.20;99.90;;;;;;5078166;28;22426;-80
2021/08/25 06:28:02;;;;;;;6.07;5.40;;;17.20;99.90;;;;;;5077667;28;20451;-79
2021/08/25 06:30:30;;;;;;;6.20;5.60;;;17.40;59.80;;;;;;5071906;28;20478;-79
2021/08/25 06:32:58;;;;;;;6.17;5.57;;;17.60;21.60;;;;;;5070808;28;20451;-79
2021/08/25 06:35:26;;;;;;;6.20;5.60;;;17.70;1.00;;;;;;5081233;28;20562;-80
2021/08/25 06:37:54;;;;;;;7.28;5.75;;;17.90;1.00;;;;;;5076846;28;20437;-79
2021/08/25 06:40:25;;;;;;;6.30;5.10;;;18.10;1.00;;;;;;5057635;28;20223;-80
2021/08/25 06:42:53;;;;;;;5.27;4.57;;;18.20;1.00;;;;;;5077377;28;20460;-81
2021/08/25 06:45:21;;;;;;;5.20;4.47;;;18.40;1.00;;;;;;5058865;28;20817;-79
2021/08/25 06:47:49;;;;;;;5.37;4.70;;;18.50;1.00;;;;;;5080011;28;21309;-80
2021/08/25 06:50:17;;;;;;;5.67;4.50;;;18.70;1.00;;;;;;5080603;28;20863;-78
2021/08/25 06:52:46;;;;;;;5.13;4.70;;;18.90;1.00;;;;;;5077692;28;20465;-79
2021/08/25 06:55:14;;;;;;;4.23;3.80;;;19.00;1.00;;;;;;5060540;28;20561;-78
2021/08/25 06:57:43;;;;;;;5.47;4.97;;;19.20;1.00;;;;;;5079215;28;20947;-78
2021/08/25 07:00:12;;;;;;;4.83;4.43;;;19.30;1.00;;;;;;5074873;28;20475;-80
2021/08/25 07:02:40;;;;;;;5.00;4.03;;;19.40;1.00;;;;;;5075662;28;20542;-80
2021/08/25 07:05:09;;;;;;;4.77;4.30;;;19.60;1.00;;;;;;5073905;28;21006;-81
2021/08/25 07:07:37;;;;;;;5.37;4.03;;;19.70;1.00;;;;;;5081594;28;20485;-82
2021/08/25 07:10:07;;;;;;;4.03;3.53;;;19.80;99.90;;;;;;5064796;28;20447;-80
2021/08/25 07:12:35;;;;;;;4.30;4.00;;;20.00;99.90;;;;;;5073686;28;20450;-81
2021/08/25 07:15:05;;;;;;;5.50;4.10;;;20.10;99.90;;;;;;5073739;28;21300;-81
2021/08/25 07:17:34;;;;;;;4.80;3.60;;;20.20;99.90;;;;;;5068740;28;20458;-83
2021/08/25 07:20:02;;;;;;;3.58;3.22;;;20.40;99.90;;;;;;5083553;28;20459;-80
2021/08/25 07:22:30;;;;;;;3.90;3.50;;;20.50;99.90;;;;;;5075086;28;20324;-80
2021/08/25 07:24:58;;;;;;;4.13;3.40;;;20.60;99.90;;;;;;5078257;28;20471;-82
2021/08/25 07:27:26;;;;;;;3.20;2.90;;;20.70;99.90;;;;;;5065408;28;20510;-79
2021/08/25 07:29:54;;;;;;;3.40;3.10;;;20.80;99.90;;;;;;5073376;28;20470;-80
2021/08/25 07:32:24;;;;;;;4.50;4.10;;;20.80;99.90;;;;;;5072686;28;20890;-80
2021/08/25 07:34:52;;;;;;;4.10;3.60;;;20.80;99.90;;;;;;5060606;28;20482;-78
2021/08/25 07:37:20;;;;;;;3.00;2.60;;;20.80;99.90;;;;;;5065350;28;20466;-78
2021/08/25 07:39:48;;;;;;;3.20;3.00;;;20.80;99.90;;;;;;5083865;28;20482;-79
2021/08/25 07:42:17;;;;;;;3.83;3.50;;;20.80;99.90;;;;;;5069781;28;20463;-79
2021/08/25 07:44:45;;;;;;;2.73;2.53;;;20.90;99.90;;;;;;5076104;28;20485;-78
2021/08/25 07:47:13;;;;;;;12.57;8.00;;;20.80;99.90;;;;;;5079029;28;20881;-77
2021/08/25 07:49:42;;;;;;;8.73;5.80;;;20.80;99.90;;;;;;5079137;28;20863;-77
2021/08/25 07:52:11;;;;;;;6.27;3.37;;;20.90;99.90;;;;;;5075496;28;20854;-81
2021/08/25 07:54:39;;;;;;;4.33;2.90;;;20.90;99.90;;;;;;5073833;28;20487;-81
2021/08/25 07:57:07;;;;;;;2.77;2.50;;;20.90;99.90;;;;;;5076626;28;20462;-80
2021/08/25 07:59:35;;;;;;;3.87;2.50;;;20.90;99.90;;;;;;5076262;28;20507;-79
2021/08/25 08:02:03;;;;;;;3.00;2.50;;;20.90;99.90;;;;;;5076707;28;20484;-80
2021/08/25 08:04:32;;;;;;;2.80;2.50;;;20.90;99.90;;;;;;5076555;28;20508;-76
2021/08/25 08:07:01;;;;;;;3.10;2.80;;;21.00;99.90;;;;;;5072971;28;20946;-79
2021/08/25 08:09:29;;;;;;;3.30;3.00;;;20.90;99.90;;;;;;5081927;28;20461;-79
2021/08/25 08:11:58;;;;;;;3.03;2.80;;;21.00;99.90;;;;;;5080675;28;20462;-80
2021/08/25 08:14:26;;;;;;;3.67;3.10;;;21.00;99.90;;;;;;5080564;28;20887;-82
2021/08/25 08:16:56;;;;;;;2.90;2.70;;;21.00;99.90;;;;;;5072384;28;20466;-79
2021/08/25 08:19:29;;;;;;;5.10;2.57;;;21.00;99.90;;;;;;5071471;28;20545;-80
2021/08/25 08:21:59;;;;;;;2.23;2.03;;;21.00;99.90;;;;;;5081750;28;20899;-79
2021/08/25 08:24:29;;;;;;;2.97;2.70;;;21.00;99.90;;;;;;5073099;28;20472;-79
2021/08/25 08:26:58;;;;;;;2.00;1.90;;;21.10;99.90;;;;;;5072649;28;20459;-77
2021/08/25 08:29:27;;;;;;;3.67;2.50;;;21.10;99.90;;;;;;5077600;28;20535;-82
2021/08/25 08:31:55;;;;;;;4.00;2.50;;;21.10;99.90;;;;;;5075406;28;20445;-82
2021/08/25 08:34:24;;;;;;;2.90;2.20;;;21.10;99.90;;;;;;5083031;28;20875;-82
2021/08/25 08:36:53;;;;;;;3.10;2.30;;;21.20;99.90;;;;;;5066377;28;20494;-83
2021/08/25 08:39:21;;;;;;;2.00;1.90;;;21.20;99.90;;;;;;5072648;28;20519;-83
2021/08/25 08:41:51;;;;;;;2.80;2.60;;;21.20;99.90;;;;;;5071408;28;20486;-83
2021/08/25 08:44:20;;;;;;;3.30;3.10;;;21.20;99.90;;;;;;5074137;28;21034;-82
2021/08/25 08:46:50;;;;;;;2.53;2.20;;;21.30;99.90;;;;;;5078113;28;20514;-83
2021/08/25 08:49:18;;;;;;;3.30;2.67;;;21.20;99.90;;;;;;5065497;28;20484;-79
2021/08/25 08:51:48;;;;;;;2.40;2.20;;;21.20;99.90;;;;;;5062345;28;21095;-81
2021/08/25 08:54:18;;;;;;;2.30;2.10;;;21.20;99.90;;;;;;5069078;28;20478;-82
2021/08/25 08:56:46;;;;;;;2.37;2.17;;;21.20;99.90;;;;;;5074236;28;20541;-83
2021/08/25 08:59:16;;;;;;;3.33;1.80;;;21.20;99.90;;;;;;5074812;28;20516;-83
2021/08/25 09:01:45;;;;;;;2.50;1.93;;;21.20;99.90;;;;;;5071332;28;20486;-83
2021/08/25 09:04:33;;;;;;;3.50;2.93;;;21.30;99.90;;;;;;5061766;28;20576;-84
2021/08/25 09:07:03;;;;;;;2.60;2.37;;;21.30;99.90;;;;;;5078790;28;20450;-83
2021/08/25 09:09:54;;;;;;;4.20;3.00;;;21.30;99.90;;;;;;5069895;28;20482;-82
2021/08/25 09:12:22;;;;;;;2.83;2.60;;;21.40;99.90;;;;;;5050935;28;20469;-83
2021/08/25 09:14:52;;;;;;;2.80;2.33;;;21.40;99.90;;;;;;5050655;28;20467;-82
2021/08/25 09:17:28;;;;;;;3.47;2.87;;;21.40;99.90;;;;;;5066515;28;20443;-83
2021/08/25 09:20:10;;;;;;;2.93;2.73;;;21.50;99.90;;;;;;5068971;28;20461;-82
2021/08/25 09:22:39;;;;;;;3.73;2.60;;;21.50;99.90;;;;;;5062264;28;20530;-83
2021/08/25 09:25:07;;;;;;;4.07;3.57;;;21.50;99.90;;;;;;5066237;28;20889;-83
2021/08/25 09:27:36;;;;;;;3.37;2.80;;;21.60;99.90;;;;;;5068151;28;20451;-83
2021/08/25 09:30:07;;;;;;;3.60;3.27;;;21.60;99.90;;;;;;5069550;28;20461;-82
2021/08/25 09:32:36;;;;;;;2.77;2.50;;;21.70;99.90;;;;;;5075424;28;20454;-83
2021/08/25 09:35:05;;;;;;;2.97;2.77;;;21.70;99.90;;;;;;5071968;28;20475;-84
2021/08/25 09:37:33;;;;;;;3.47;3.17;;;21.70;99.90;;;;;;5056791;28;21252;-83
2021/08/25 09:40:06;;;;;;;2.93;2.30;;;21.90;99.90;;;;;;5070994;28;20496;-83
2021/08/25 09:42:42;;;;;;;3.30;2.77;;;21.90;99.90;;;;;;5071610;28;20478;-84
2021/08/25 09:45:16;;;;;;;2.60;2.40;;;22.00;99.90;;;;;;5076253;28;20470;-83
2021/08/25 09:47:51;;;;;;;4.00;3.60;;;22.00;99.90;;;;;;5076217;28;20550;-83
2021/08/25 09:50:21;;;;;;;3.50;3.20;;;22.00;99.90;;;;;;5072650;28;20523;-84
2021/08/25 09:52:49;;;;;;;3.70;3.37;;;22.10;99.90;;;;;;5079917;28;20443;-83
2021/08/25 09:55:29;;;;;;;5.83;2.73;;;22.20;99.90;;;;;;5069614;28;20529;-84
2021/08/25 09:57:58;;;;;;;3.67;2.40;;;22.20;99.90;;;;;;5068415;28;20534;-84
2021/08/25 10:00:28;;;;;;;3.60;3.20;;;22.20;99.90;;;;;;5073609;28;20442;-85
2021/08/25 10:02:56;;;;;;;4.30;2.27;;;22.20;99.90;;;;;;5073221;28;20453;-84
2021/08/25 10:05:26;;;;;;;3.17;2.80;;;22.20;99.90;;;;;;5073275;28;20467;-84
2021/08/25 10:07:55;;;;;;;3.00;2.30;;;22.20;99.90;;;;;;5073243;28;20453;-85
2021/08/25 10:10:23;;;;;;;3.70;2.60;;;22.40;99.90;;;;;;5076983;28;20458;-84
2021/08/25 10:12:52;;;;;;;2.80;2.47;;;22.30;99.90;;;;;;5072647;28;20439;-85
2021/08/25 10:15:45;;;;;;;2.80;2.60;;;22.40;99.90;;;;;;5073069;28;20477;-84
2021/08/25 10:18:29;;;;;;;2.60;2.27;;;22.50;99.90;;;;;;5072270;28;20447;-84
2021/08/25 10:20:58;;;;;;;3.37;2.10;;;22.50;99.90;;;;;;5060992;28;20449;-83
2021/08/25 10:23:56;;;;;;;3.57;2.53;;;22.60;99.90;;;;;;5073538;28;21049;-84
2021/08/25 10:26:25;;;;;;;2.90;2.60;;;22.60;99.90;;;;;;5068147;28;20996;-83
2021/08/25 10:29:08;;;;;;;3.50;2.90;;;22.60;99.90;;;;;;5077525;28;20515;-85
2021/08/25 10:32:14;;;;;;;2.97;2.70;;;22.70;99.90;;;;;;5060682;28;20445;-84
2021/08/25 10:34:44;;;;;;;4.43;2.90;;;22.60;99.90;;;;;;5080341;28;20485;-84
2021/08/25 10:37:28;;;;;;;5.83;3.07;;;22.60;99.90;;;;;;5072228;28;20517;-84
2021/08/25 10:40:01;;;;;;;3.43;3.13;;;22.70;99.90;;;;;;5073980;28;20957;-79
2021/08/25 10:42:53;;;;;;;3.70;3.40;;;22.80;99.90;;;;;;5073620;28;20590;-79
2021/08/25 10:45:56;;;;;;;2.60;2.37;;;22.90;99.90;;;;;;5077315;28;20954;-78
2021/08/25 10:48:41;;;;;;;4.03;3.30;;;22.90;99.90;;;;;;5076094;28;20450;-80
2021/08/25 10:51:37;;;;;;;2.77;2.47;;;23.00;99.90;;;;;;5071281;28;20438;-79
2021/08/25 10:54:14;;;;;;;4.13;3.73;;;23.10;99.90;;;;;;5072093;28;20502;-79
2021/08/25 10:56:46;;;;;;;3.30;2.73;;;23.00;99.90;;;;;;5079668;28;20445;-80
2021/08/25 10:59:19;;;;;;;3.27;2.57;;;23.00;99.90;;;;;;5053800;28;20817;-81
2021/08/25 11:01:49;;;;;;;1.90;1.80;;;23.00;99.90;;;;;;5066325;28;20460;-79
2021/08/25 11:04:19;;;;;;;2.70;2.50;;;23.10;99.90;;;;;;5074324;28;20526;-79
2021/08/25 11:06:54;;;;;;;3.87;2.70;;;23.10;99.90;;;;;;5061777;28;20941;-80
2021/08/25 11:09:25;;;;;;;2.60;2.40;;;23.10;99.90;;;;;;5073200;28;20535;-79
2021/08/25 11:11:56;;;;;;;4.20;2.43;;;23.20;99.90;;;;;;5053300;28;21023;-80
2021/08/25 11:14:36;;;;;;;3.50;2.63;;;23.30;99.90;;;;;;5079431;28;20474;-79
2021/08/25 11:17:10;;;;;;;9.50;5.90;;;23.30;99.90;;;;;;5058549;28;20502;-79
2021/08/25 11:19:41;;;;;;;3.73;2.50;;;23.30;99.90;;;;;;5072975;28;20850;-80
2021/08/25 11:22:16;;;;;;;2.93;2.67;;;23.30;99.90;;;;;;5070171;28;20485;-81
2021/08/25 11:24:47;;;;;;;3.00;2.23;;;23.40;99.90;;;;;;5083050;28;20468;-79
2021/08/25 11:27:32;;;;;;;2.63;2.00;;;23.40;99.90;;;;;;5071489;28;20447;-80
2021/08/25 11:30:24;;;;;;;2.73;2.53;;;23.40;99.90;;;;;;5055660;28;20480;-80
2021/08/25 11:32:57;;;;;;;2.93;2.23;;;23.40;99.90;;;;;;5056247;28;20466;-80
2021/08/25 11:35:29;;;;;;;2.40;2.20;;;23.50;99.90;;;;;;5057209;28;20796;-80
2021/08/25 11:38:00;;;;;;;2.43;2.13;;;23.50;99.90;;;;;;5080781;28;20445;-80
2021/08/25 11:40:30;;;;;;;2.63;1.80;;;23.50;99.90;;;;;;5073639;28;20464;-79
2021/08/25 11:43:05;;;;;;;2.40;2.10;;;23.50;99.90;;;;;;5074589;28;20470;-81
2021/08/25 11:45:34;;;;;;;4.23;3.17;;;23.50;99.90;;;;;;5066481;28;20453;-79
2021/08/25 11:48:04;;;;;;;3.40;2.70;;;23.60;99.90;;;;;;5085640;28;20534;-80
2021/08/25 11:50:34;;;;;;;3.00;2.40;;;23.50;99.90;;;;;;5078920;28;20445;-79
2021/08/25 11:53:11;;;;;;;3.03;2.23;;;23.50;99.90;;;;;;5078472;28;20454;-81
2021/08/25 11:55:39;;;;;;;2.33;1.97;;;23.50;99.90;;;;;;5075501;28;20465;-80
2021/08/25 11:58:22;;;;;;;3.60;2.60;;;23.60;99.90;;;;;;5058192;28;20485;-80
2021/08/25 12:00:51;;;;;;;2.40;2.00;;;23.60;99.90;;;;;;5074101;28;20941;-81
2021/08/25 12:03:20;;;;;;;3.27;2.93;;;23.60;99.90;;;;;;5078396;28;20467;-80
2021/08/25 12:05:53;;;;;;;2.77;2.40;;;23.60;99.90;;;;;;5060777;28;20450;-80
2021/08/25 12:08:23;;;;;;;2.80;2.60;;;23.70;99.90;;;;;;5069463;28;20439;-81
2021/08/25 12:11:04;;;;;;;4.33;2.90;;;23.60;99.90;;;;;;5070397;28;20439;-79
2021/08/25 12:13:33;;;;;;;5.63;2.60;;;23.60;99.90;;;;;;5067852;28;20494;-80
2021/08/25 12:16:02;;;;;;;3.63;2.20;;;23.70;99.90;;;;;;5073625;28;20509;-80
2021/08/25 12:18:45;;;;;;;3.40;2.60;;;23.70;99.90;;;;;;5071700;28;21022;-81
2021/08/25 12:21:13;;;;;;;2.30;2.10;;;23.70;99.90;;;;;;5074732;28;20942;-81
2021/08/25 12:23:57;;;;;;;2.57;2.37;;;23.70;99.90;;;;;;5074009;28;20481;-81
2021/08/25 12:26:26;;;;;;;2.70;2.20;;;23.70;99.90;;;;;;5073600;28;20504;-82
2021/08/25 12:28:55;;;;;;;3.80;3.10;;;23.80;99.90;;;;;;5068983;28;20456;-82
2021/08/25 12:31:26;;;;;;;3.47;3.17;;;23.70;99.90;;;;;;5069269;28;20549;-82
2021/08/25 12:34:06;;;;;;;2.80;2.50;;;23.70;99.90;;;;;;5059946;28;20482;-82
2021/08/25 12:36:36;;;;;;;4.40;2.97;;;23.60;99.90;;;;;;5055598;28;20457;-82
2021/08/25 12:39:16;;;;;;;4.00;3.67;;;23.70;99.90;;;;;;5075834;28;20454;-83
2021/08/25 12:41:46;;;;;;;4.80;2.63;;;23.80;99.90;;;;;;5059306;28;20523;-82
2021/08/25 12:44:14;;;;;;;4.23;2.87;;;23.80;99.90;;;;;;5066314;28;20493;-83
2021/08/25 12:46:50;;;;;;;3.30;2.87;;;23.80;99.90;;;;;;5070592;28;20450;-82
2021/08/25 12:49:19;;;;;;;3.50;2.80;;;23.80;99.90;;;;;;5073873;28;20466;-83
2021/08/25 12:51:47;;;;;;;4.33;2.87;;;23.80;99.90;;;;;;5051630;28;20462;-83
2021/08/25 12:54:17;;;;;;;2.87;2.67;;;23.80;99.90;;;;;;5051846;28;21129;-83
2021/08/25 12:56:46;;;;;;;2.70;2.30;;;23.80;99.90;;;;;;5069865;28;20454;-82
2021/08/25 12:59:15;;;;;;;3.30;2.60;;;23.80;99.90;;;;;;5054203;28;20454;-83
2021/08/25 13:01:44;;;;;;;3.20;2.73;;;23.80;99.90;;;;;;5059690;28;21005;-83
2021/08/25 13:04:12;;;;;;;4.90;3.10;;;23.80;99.90;;;;;;5064263;28;20492;-82
2021/08/25 13:06:41;;;;;;;2.47;2.27;;;23.90;99.90;;;;;;5078581;28;20450;-83